Salvamar Rigel — EA4400 — position and weather

sailwx.info

Track history (hours):
 
Tides and Currents Weather Stations Pressure Air Temp Water Temp Dewpoint Dewpoint Depression Visibility Wind Speed Wind Dir Waves Ship Positions

Salvamar Rigel

Last reported at 2018-Feb-16 11:41 UTC. Time now 2018-Feb-19 02:38 UTC.
Position N 43°33' W 005°42'.

Length 20 m; draft 1 m.

Type: SAR. MMSI: 224003390.

Date/timePositionNaut miles runAvg speedWind from/ knotsBaromVisibWave heightAir tempDewpointWater temp
2018-Feb-16 11:41N 43°33' W 005°42'0 0.0
2018-Feb-16 11:30N 43°33' W 005°42'0 0.0
2018-Feb-16 10:59N 43°33' W 005°42'0 0.0
2018-Feb-16 10:30N 43°33' W 005°42'0 0.0
2018-Feb-16 09:57N 43°33' W 005°42'0 0.0
2018-Feb-16 09:30N 43°33' W 005°42'1 2.4
2018-Feb-16 09:00N 43°34' W 005°41'1 1.3
2018-Feb-16 08:29N 43°34' W 005°41'1 1.0
2018-Feb-16 08:00N 43°33' W 005°42'0 0.0
2018-Feb-16 07:30N 43°33' W 005°42'0 0.0
2018-Feb-15 16:15N 43°33' W 005°42'0 0.0
2018-Feb-15 16:00N 43°33' W 005°42'0 0.0
2018-Feb-15 15:31N 43°33' W 005°42'0 0.0
2018-Feb-15 14:58N 43°33' W 005°42'0 0.0
2018-Feb-15 14:30N 43°33' W 005°42'0 0.0
2018-Feb-15 14:00N 43°33' W 005°42'0 0.0
2018-Feb-15 11:38N 43°33' W 005°42'0 0.0
2018-Feb-15 11:30N 43°33' W 005°42'0 0.0
2018-Feb-15 11:00N 43°33' W 005°42'0 0.0
2018-Feb-15 10:30N 43°33' W 005°42'0 0.0
2018-Feb-15 10:00N 43°33' W 005°42'0 0.0
2018-Feb-15 09:30N 43°33' W 005°42'0 0.0
2018-Feb-15 09:00N 43°33' W 005°42'0 0.0
2018-Feb-15 08:30N 43°33' W 005°42'0 0.0
2018-Feb-15 08:00N 43°33' W 005°42'0 0.0
2018-Feb-14 19:17N 43°33' W 005°42'310.7
2018-Feb-14 18:59N 43°35' W 005°38'0 0.9
2018-Feb-14 18:30N 43°35' W 005°38'3 6.5
2018-Feb-14 18:00N 43°33' W 005°42'0 0.0
2018-Feb-14 12:53N 43°33' W 005°42'0 0.0
2018-Feb-14 12:27N 43°33' W 005°42'0 0.1
2018-Feb-14 12:01N 43°33' W 005°42'0 0.1
2018-Feb-14 11:30N 43°33' W 005°42'0 0.0
2018-Feb-14 11:00N 43°33' W 005°42'0 0.0
2018-Feb-14 10:31N 43°33' W 005°42'0 0.0
2018-Feb-14 10:00N 43°33' W 005°42'0 0.0
2018-Feb-14 09:31N 43°33' W 005°42'0 0.0
2018-Feb-14 09:00N 43°33' W 005°42'0 0.0
2018-Feb-14 08:30N 43°33' W 005°42'0 0.0
2018-Feb-14 08:00N 43°33' W 005°42'0 0.0
2018-Feb-12 20:42N 43°33' W 005°42'1 4.6
2018-Feb-12 20:29N 43°34' W 005°41'4 8.9
2018-Feb-12 20:00N 43°36' W 005°35'0 0.4
2018-Feb-12 19:29N 43°36' W 005°36'0 0.3
2018-Feb-12 19:00N 43°36' W 005°36'1 1.5
2018-Feb-12 18:30N 43°36' W 005°37'4 8.5
2018-Feb-12 18:00N 43°33' W 005°42'0 0.0
2018-Feb-12 17:29N 43°33' W 005°42'0 0.0
2018-Feb-12 12:05N 43°33' W 005°42'0 0.0
2018-Feb-12 12:00N 43°33' W 005°42'0 0.0
2018-Feb-12 11:30N 43°33' W 005°42'0 0.0
2018-Feb-12 11:00N 43°33' W 005°42'0 0.0
2018-Feb-12 10:29N 43°33' W 005°42'0 0.0
2018-Feb-12 10:00N 43°33' W 005°42'0 0.0
2018-Feb-12 09:30N 43°33' W 005°42'0 0.0
2018-Feb-12 09:00N 43°33' W 005°42'0 0.0
2018-Feb-12 08:29N 43°33' W 005°42'  
2018-Feb-09 11:00N 43°33' W 005°42'0 0.0
2018-Feb-09 08:00N 43°33' W 005°42'0 0.0
2018-Feb-08 09:00N 43°33' W 005°42'0 0.0
2018-Feb-07 09:24N 43°33' W 005°42'0 0.0
2018-Feb-07 08:59N 43°33' W 005°42'0 0.0
2018-Feb-07 08:23N 43°33' W 005°42'0 0.0
2018-Feb-07 07:58N 43°33' W 005°42'0 0.0
2018-Feb-06 17:14N 43°33' W 005°42'0 0.1
2018-Feb-06 17:00N 43°33' W 005°42'0 0.0
2018-Feb-06 16:30N 43°33' W 005°42'0 0.0
2018-Feb-06 16:00N 43°33' W 005°42'0 0.0
2018-Feb-06 15:30N 43°33' W 005°42'0 0.0
2018-Feb-06 15:00N 43°33' W 005°42'0 0.0
2018-Feb-06 14:30N 43°33' W 005°42'0 0.0
2018-Feb-06 11:51N 43°33' W 005°42'  
Track history (hours):
 
Tides and Currents Weather Stations Pressure Air Temp Water Temp Dewpoint Dewpoint Depression Visibility Wind Speed Wind Dir Waves Ship Positions

Salvamar Rigel

Last reported at 2018-Feb-16 11:41 UTC. Time now 2018-Feb-19 02:38 UTC.
Position N 43°33' W 005°42'.

Length 20 m; draft 1 m.

Type: SAR. MMSI: 224003390.

Date/timePositionNaut miles runAvg speedWind from/ knotsBaromVisibWave heightAir tempDewpointWater temp
2018-Feb-16 11:41N 43°33' W 005°42'0 0.0
2018-Feb-16 11:30N 43°33' W 005°42'0 0.0
2018-Feb-16 10:59N 43°33' W 005°42'0 0.0
2018-Feb-16 10:30N 43°33' W 005°42'0 0.0
2018-Feb-16 09:57N 43°33' W 005°42'0 0.0
2018-Feb-16 09:30N 43°33' W 005°42'1 2.4
2018-Feb-16 09:00N 43°34' W 005°41'1 1.3
2018-Feb-16 08:29N 43°34' W 005°41'1 1.0
2018-Feb-16 08:00N 43°33' W 005°42'0 0.0
2018-Feb-16 07:30N 43°33' W 005°42'0 0.0
2018-Feb-15 16:15N 43°33' W 005°42'0 0.0
2018-Feb-15 16:00N 43°33' W 005°42'0 0.0
2018-Feb-15 15:31N 43°33' W 005°42'0 0.0
2018-Feb-15 14:58N 43°33' W 005°42'0 0.0
2018-Feb-15 14:30N 43°33' W 005°42'0 0.0
2018-Feb-15 14:00N 43°33' W 005°42'0 0.0
2018-Feb-15 11:38N 43°33' W 005°42'0 0.0
2018-Feb-15 11:30N 43°33' W 005°42'0 0.0
2018-Feb-15 11:00N 43°33' W 005°42'0 0.0
2018-Feb-15 10:30N 43°33' W 005°42'0 0.0
2018-Feb-15 10:00N 43°33' W 005°42'0 0.0
2018-Feb-15 09:30N 43°33' W 005°42'0 0.0
2018-Feb-15 09:00N 43°33' W 005°42'0 0.0
2018-Feb-15 08:30N 43°33' W 005°42'0 0.0
2018-Feb-15 08:00N 43°33' W 005°42'0 0.0
2018-Feb-14 19:17N 43°33' W 005°42'310.7
2018-Feb-14 18:59N 43°35' W 005°38'0 0.9
2018-Feb-14 18:30N 43°35' W 005°38'3 6.5
2018-Feb-14 18:00N 43°33' W 005°42'0 0.0
2018-Feb-14 12:53N 43°33' W 005°42'0 0.0
2018-Feb-14 12:27N 43°33' W 005°42'0 0.1
2018-Feb-14 12:01N 43°33' W 005°42'0 0.1
2018-Feb-14 11:30N 43°33' W 005°42'0 0.0
2018-Feb-14 11:00N 43°33' W 005°42'0 0.0
2018-Feb-14 10:31N 43°33' W 005°42'0 0.0
2018-Feb-14 10:00N 43°33' W 005°42'0 0.0
2018-Feb-14 09:31N 43°33' W 005°42'0 0.0
2018-Feb-14 09:00N 43°33' W 005°42'0 0.0
2018-Feb-14 08:30N 43°33' W 005°42'0 0.0
2018-Feb-14 08:00N 43°33' W 005°42'0 0.0
2018-Feb-12 20:42N 43°33' W 005°42'1 4.6
2018-Feb-12 20:29N 43°34' W 005°41'4 8.9
2018-Feb-12 20:00N 43°36' W 005°35'0 0.4
2018-Feb-12 19:29N 43°36' W 005°36'0 0.3
2018-Feb-12 19:00N 43°36' W 005°36'1 1.5
2018-Feb-12 18:30N 43°36' W 005°37'4 8.5
2018-Feb-12 18:00N 43°33' W 005°42'0 0.0
2018-Feb-12 17:29N 43°33' W 005°42'0 0.0
2018-Feb-12 12:05N 43°33' W 005°42'0 0.0
2018-Feb-12 12:00N 43°33' W 005°42'0 0.0
2018-Feb-12 11:30N 43°33' W 005°42'0 0.0
2018-Feb-12 11:00N 43°33' W 005°42'0 0.0
2018-Feb-12 10:29N 43°33' W 005°42'0 0.0
2018-Feb-12 10:00N 43°33' W 005°42'0 0.0
2018-Feb-12 09:30N 43°33' W 005°42'0 0.0
2018-Feb-12 09:00N 43°33' W 005°42'0 0.0
2018-Feb-12 08:29N 43°33' W 005°42'  
2018-Feb-09 11:00N 43°33' W 005°42'0 0.0
2018-Feb-09 08:00N 43°33' W 005°42'0 0.0
2018-Feb-08 09:00N 43°33' W 005°42'0 0.0
2018-Feb-07 09:24N 43°33' W 005°42'0 0.0
2018-Feb-07 08:59N 43°33' W 005°42'0 0.0
2018-Feb-07 08:23N 43°33' W 005°42'0 0.0
2018-Feb-07 07:58N 43°33' W 005°42'0 0.0
2018-Feb-06 17:14N 43°33' W 005°42'0 0.1
2018-Feb-06 17:00N 43°33' W 005°42'0 0.0
2018-Feb-06 16:30N 43°33' W 005°42'0 0.0
2018-Feb-06 16:00N 43°33' W 005°42'0 0.0
2018-Feb-06 15:30N 43°33' W 005°42'0 0.0
2018-Feb-06 15:00N 43°33' W 005°42'0 0.0
2018-Feb-06 14:30N 43°33' W 005°42'0 0.0
2018-Feb-06 11:51N 43°33' W 005°42'  

Dump ship's entire track history